| time (UTC) | temp C | wind direction | speed KPH | gust KPH | rain 1hr cm | rain 24hr cm | rain mn cm | humidity % | barometer mb |
| 20260509160739 | 6 | 288 | 8.0 | 11.3 | 0.00 | 0.00 | 0.00 | 81 | 1001.1 |
| 20260509160239 | 6 | 27 | 4.8 | 12.9 | 0.00 | 0.00 | 0.00 | 81 | 1001.1 |
| 20260509150740 | 5 | 280 | 4.8 | 12.9 | 0.00 | 0.00 | 0.00 | 82 | 1001.1 |
| 20260509140740 | 5 | 114 | 4.8 | 12.9 | 0.00 | 0.00 | 0.00 | 84 | 1001.6 |
| 20260509130739 | 5 | 78 | 4.8 | 11.3 | 0.00 | 0.00 | 0.00 | 84 | 1001.8 |
| 20260509130240 | 5 | 289 | 4.8 | 14.5 | 0.00 | 0.00 | 0.00 | 84 | 1001.8 |
| 20260509120740 | 5 | 306 | 8.0 | 14.5 | 0.00 | 0.00 | 0.00 | 81 | 1001.9 |
| 20260509120240 | 5 | 294 | 9.7 | 14.5 | 0.00 | 0.00 | 0.00 | 81 | 1001.9 |
| 20260509110740 | 5 | 279 | 9.7 | 11.3 | 0.00 | 0.00 | 0.00 | 79 | 1002.5 |
| 20260509100740 | 5 | 274 | 9.7 | 14.5 | 0.00 | 0.00 | 0.00 | 80 | 1002.7 |
| 20260509100239 | 5 | 288 | 11.3 | 14.5 | 0.00 | 0.00 | 0.00 | 80 | 1002.7 |
| 20260509090739 | 5 | 284 | 9.7 | 12.9 | 0.00 | 0.00 | 0.00 | 81 | 1003.1 |
| 20260509090239 | 5 | 289 | 8.0 | 12.9 | 0.00 | 0.00 | 0.00 | 81 | 1003.0 |
| 20260509080739 | 5 | 136 | 8.0 | 12.9 | 0.00 | 0.00 | 0.00 | 81 | 1003.3 |
| 20260509080241 | 5 | 192 | 8.0 | 14.5 | 0.00 | 0.00 | 0.00 | 81 | 1003.3 |
| 20260509060809 | 6 | 267 | 8.0 | 14.5 | 0.00 | 0.00 | 0.00 | 79 | 1003.9 |
| 20260509060308 | 6 | 277 | 6.4 | 14.5 | 0.00 | 0.00 | 0.00 | 78 | 1003.8 |
| 20260509050808 | 6 | 140 | 4.8 | 11.3 | 0.00 | 0.00 | 0.00 | 76 | 1003.9 |
| 20260509050309 | 6 | 139 | 3.2 | 11.3 | 0.00 | 0.00 | 0.00 | 76 | 1003.9 |
| 20260509040808 | 7 | 261 | 4.8 | 11.3 | 0.00 | 0.00 | 0.00 | 73 | 1004.2 |
| 20260509040308 | 7 | 187 | 3.2 | 12.9 | 0.00 | 0.00 | 0.00 | 72 | 1004.3 |
| 20260509030808 | 8 | 320 | 3.2 | 9.7 | 0.00 | 0.00 | 0.00 | 67 | 1004.1 |
| 20260509030308 | 8 | 295 | 3.2 | 12.9 | 0.00 | 0.00 | 0.00 | 67 | 1004.1 |
| 20260509020808 | 9 | 305 | 8.0 | 11.3 | 0.00 | 0.00 | 0.00 | 60 | 1004.0 |
| 20260509020309 | 10 | 324 | 4.8 | 14.5 | 0.00 | 0.00 | 0.00 | 59 | 1004.0 |
| 20260509010808 | 11 | 88 | 3.2 | 4.8 | 0.00 | 0.00 | 0.00 | 54 | 1004.0 |
| 20260509010307 | 11 | 45 | 3.2 | 11.3 | 0.00 | 0.00 | 0.00 | 54 | 1003.9 |
| 20260509000310 | 11 | 40 | 3.2 | 9.7 | 0.00 | 0.00 | 0.00 | 51 | 1004.0 |
| 20260508230808 | 12 | 53 | 3.2 | 8.0 | 0.00 | 0.00 | 0.00 | 48 | 1004.3 |
| 20260508230307 | 12 | 92 | 3.2 | 11.3 | 0.00 | 0.00 | 0.00 | 48 | 1004.3 |
| 20260508220808 | 12 | 95 | 1.6 | 4.8 | 0.00 | 0.00 | 0.00 | 48 | 1004.8 |
| 20260508220308 | 12 | 284 | 1.6 | 12.9 | 0.00 | 0.00 | 0.00 | 47 | 1004.9 |
| 20260508210808 | 10 | 29 | 4.8 | 11.3 | 0.00 | 0.00 | 0.00 | 50 | 1005.6 |
| 20260508210308 | 10 | 300 | 4.8 | 16.1 | 0.00 | 0.00 | 0.00 | 49 | 1005.6 |
| 20260508200809 | 10 | 276 | 8.0 | 12.9 | 0.00 | 0.00 | 0.00 | 50 | 1005.9 |
| 20260508200309 | 9 | 313 | 9.7 | 14.5 | 0.00 | 0.00 | 0.00 | 49 | 1006.0 |
| 20260508190810 | 9 | 301 | 8.0 | 14.5 | 0.00 | 0.00 | 0.00 | 50 | 1006.2 |
| 20260508190309 | 9 | 320 | 8.0 | 14.5 | 0.00 | 0.00 | 0.00 | 50 | 1006.2 |
| 20260508180308 | 7 | 256 | 3.2 | 12.9 | 0.00 | 0.00 | 0.00 | 54 | 1007.0 |
| 20260508170807 | 6 | 291 | 4.8 | 11.3 | 0.00 | 0.00 | 0.00 | 58 | 1007.8 |
| 20260508170308 | 6 | 284 | 4.8 | 12.9 | 0.00 | 0.00 | 0.00 | 58 | 1008.0 |